Bei Facebook empfehlenBei Twitter postenGoogle plusPinterest

Das Wetter im Erzgebirge am 11.09.2015

Wetter und Klima am 11.09.2015 Holzhau im Erzgebirge (630m ü.NN)
Letzte gemessene Temperatur und Uhrzeit der Messung23:45:00 Uhr10.00 °C
Temperatur (Maximum / Höchstwert) und Uhrzeit der Messung16:45:00 Uhr16.10 °C
Temperatur (Minimum / Tiefstwert) und Uhrzeit der Messung05:15:004.70 °C
Errechneter Absolutwert der Temperaturschwankungen zwischen Tmin und Tmax des Tages11.40 K
Errechnete Tagesmitteltemperatur10.16667 °C
Gesamt - Niederschlag des Tages (in flüssiger Form)0.00 Liter / m²
Luftdruck (Maximum / Höchstwert) und Zeitpunkt der Messung00:30:00 Uhr1017.60 hPa
Luftdruck (Minimum / Tiefstwert) und Zeitpunkt der Messung19:45:00 Uhr1015.80 hPa
Errechneter Absolutwert der Luftdruckschwankungen des Tages1.80 hPa
Höchste gemessene Windgeschwindigkeit und Uhrzeit der Messung16:15:00 Uhr11.88 km/h
Errechnete Windhäufigkeit in Relation zu den Messwerten des Tages12.50000 %
Niedrigste Windkühle (Windchill) und Zeitpunkt der Messung05:15:00 Uhr4.70 °C
Taupunkt (Maximum / Höchstwert) und Uhrzeit der Messung16:30:00 Uhr12.50 °C
Taupunkt (Minimum / Tiefstwert) und Uhrzeit der Messung05:00:003.60 °C
Anzahl der automatisch eingelesenen Messwerte 96

Detaillierte Wetter- und Klima- Messwerte für den 11.09.2015 in Holzhau im Erzgebirge (630m ü.NN)
ZeitTemperaturLuftdruckRel. LuftfeuchteWindWindrichtungWindchillTaupunktNiederschlag l/m²
23:45:0010.00 °C1015.90 hPa92.00 %8.80 °C 
23:30:0010.10 °C1016.00 hPa92.00 %8.90 °C 
23:15:0010.10 °C1015.90 hPa92.00 %2.52 km/hNNO10.10 °C8.90 °C 
23:00:0010.10 °C1015.90 hPa91.00 %8.70 °C 
22:45:0010.20 °C1015.90 hPa91.00 %8.80 °C 
22:30:0010.20 °C1015.90 hPa91.00 %8.80 °C 
22:15:0010.20 °C1016.00 hPa90.00 %8.60 °C 
22:00:0010.10 °C1015.90 hPa90.00 %8.50 °C 
21:45:0010.00 °C1016.00 hPa90.00 %8.28 km/hSO8.90 °C8.40 °C 
21:30:0010.10 °C1016.00 hPa89.00 %8.40 °C 
21:15:0010.20 °C1015.90 hPa89.00 %8.50 °C 
21:00:0010.20 °C1015.90 hPa88.00 %8.30 °C 
20:45:0010.40 °C1016.10 hPa88.00 %8.50 °C 
20:30:0010.80 °C1016.10 hPa87.00 %8.70 °C 
20:15:0011.10 °C1016.00 hPa86.00 %8.80 °C 
20:00:0011.20 °C1015.90 hPa86.00 %8.90 °C 
19:45:0011.80 °C1015.80 hPa85.00 %9.40 °C 
19:30:0012.30 °C1016.00 hPa84.00 %9.70 °C 
19:15:0012.80 °C1015.90 hPa83.00 %10.00 °C 
19:00:0013.40 °C1016.20 hPa82.00 %10.40 °C 
18:45:0013.90 °C1016.10 hPa80.00 %10.50 °C 
18:30:0014.40 °C1016.10 hPa79.00 %7.56 km/hO14.20 °C10.80 °C 
18:15:0015.00 °C1016.10 hPa78.00 %11.20 °C 
18:00:0015.50 °C1016.10 hPa78.00 %11.70 °C 
17:45:0015.90 °C1016.20 hPa77.00 %11.90 °C 
17:30:0015.90 °C1016.10 hPa77.00 %11.90 °C 
17:15:0015.90 °C1016.30 hPa77.00 %11.90 °C 
17:00:0015.90 °C1016.00 hPa78.00 %12.10 °C 
16:45:0016.10 °C1015.90 hPa78.00 %3.96 km/hSO16.10 °C12.30 °C 
16:30:0015.90 °C1016.00 hPa80.00 %2.16 km/hOSO15.90 °C12.50 °C 
16:15:0015.60 °C1016.10 hPa80.00 %11.88 km/hOSO15.10 °C12.20 °C 
16:00:0015.50 °C1016.20 hPa81.00 %4.32 km/hOSO15.50 °C12.30 °C 
15:45:0015.40 °C1016.20 hPa82.00 %12.30 °C 
15:30:0014.90 °C1016.20 hPa84.00 %6.48 km/hS15.00 °C12.20 °C 
15:15:0014.80 °C1016.30 hPa84.00 %3.24 km/hS14.80 °C12.10 °C 
15:00:0014.80 °C1016.30 hPa85.00 %5.40 km/hS15.10 °C12.30 °C 
14:45:0014.70 °C1016.40 hPa86.00 %12.40 °C 
14:30:0013.60 °C1016.50 hPa88.00 %11.70 °C 
14:15:0012.90 °C1016.80 hPa88.00 %11.00 °C 
14:00:0012.80 °C1016.80 hPa88.00 %10.90 °C 
13:45:0012.90 °C1016.70 hPa89.00 %11.10 °C 
13:30:0012.80 °C1016.70 hPa90.00 %2.88 km/hSO12.80 °C11.20 °C 
13:15:0012.50 °C1016.80 hPa90.00 %10.90 °C 
13:00:0012.30 °C1016.70 hPa91.00 %10.90 °C 
12:45:0011.60 °C1016.80 hPa91.00 %10.20 °C 
12:30:0011.40 °C1016.70 hPa91.00 %10.00 °C 
12:15:0011.20 °C1016.90 hPa91.00 %9.80 °C 
12:00:0011.30 °C1016.90 hPa91.00 %9.90 °C 
11:45:0011.60 °C1016.90 hPa92.00 %10.30 °C 
11:30:0011.60 °C1016.80 hPa92.00 %10.30 °C 
11:15:0011.90 °C1016.90 hPa92.00 %10.60 °C 
11:00:0011.90 °C1016.90 hPa93.00 %10.80 °C 
10:45:0011.80 °C1016.90 hPa94.00 %10.90 °C 
10:30:0011.30 °C1016.90 hPa94.00 %10.40 °C 
10:15:0011.20 °C1017.00 hPa93.00 %10.10 °C 
10:00:0011.50 °C1016.80 hPa94.00 %10.60 °C 
09:45:0011.50 °C1016.70 hPa94.00 %10.60 °C 
09:30:0011.30 °C1016.70 hPa95.00 %10.50 °C 
09:15:0010.80 °C1016.60 hPa95.00 %10.00 °C 
09:00:0010.40 °C1016.50 hPa95.00 %3.60 km/hSO10.40 °C9.60 °C 
08:45:009.80 °C1016.60 hPa94.00 %8.90 °C 
08:30:009.00 °C1016.60 hPa94.00 %8.10 °C 
08:15:008.30 °C1016.70 hPa94.00 %7.40 °C 
08:00:008.10 °C1016.50 hPa94.00 %7.20 °C 
07:45:007.60 °C1016.50 hPa94.00 %6.70 °C 
07:30:007.30 °C1016.30 hPa94.00 %6.40 °C 
07:15:007.10 °C1016.20 hPa94.00 %6.20 °C 
07:00:006.60 °C1016.30 hPa94.00 %5.70 °C 
06:45:006.60 °C1016.30 hPa94.00 %5.70 °C 
06:30:005.90 °C1015.90 hPa93.00 %4.90 °C 
06:15:005.90 °C1016.00 hPa93.00 %4.90 °C 
06:00:006.30 °C1016.00 hPa93.00 %5.30 °C 
05:45:005.60 °C1016.20 hPa93.00 %4.60 °C 
05:30:004.90 °C1016.10 hPa93.00 %3.90 °C 
05:15:004.70 °C1016.10 hPa93.00 %3.70 °C 
05:00:004.80 °C1016.40 hPa92.00 %3.60 °C 
04:45:005.10 °C1016.50 hPa92.00 %3.90 °C 
04:30:005.30 °C1016.70 hPa93.00 %4.30 °C 
04:15:005.60 °C1016.60 hPa93.00 %4.60 °C 
04:00:005.80 °C1016.80 hPa92.00 %4.60 °C 
03:45:006.10 °C1016.90 hPa92.00 %4.90 °C 
03:30:006.40 °C1016.80 hPa92.00 %5.20 °C 
03:15:006.50 °C1016.80 hPa92.00 %5.30 °C 
03:00:006.40 °C1016.70 hPa92.00 %5.20 °C 
02:45:006.40 °C1016.90 hPa92.00 %5.20 °C 
02:30:006.40 °C1017.00 hPa92.00 %5.20 °C 
02:15:006.10 °C1017.00 hPa92.00 %4.90 °C 
02:00:005.90 °C1017.10 hPa91.00 %4.50 °C 
01:45:005.90 °C1017.00 hPa91.00 %4.50 °C 
01:30:005.80 °C1017.20 hPa91.00 %4.40 °C 
01:15:005.80 °C1017.40 hPa91.00 %4.40 °C 
01:00:005.90 °C1017.40 hPa91.00 %4.50 °C 
00:45:006.10 °C1017.50 hPa91.00 %4.70 °C 
00:30:006.10 °C1017.60 hPa90.00 %4.60 °C 
00:15:006.20 °C1017.60 hPa90.00 %4.70 °C 
00:00:006.20 °C1017.60 hPa90.00 %4.70 °C 

Permanenter Link zu dieser Seite: Wetter im Erzgebirge am 11.09.2015
Performance-Info: Die Erstellung der Seite / Statistik(en) / Tabelle(n) erforderte 5 Datenbankserver-Abfrage(n) und dauerte 120 Millisekunden. (Dieser Messwert ist von der Gesamt-Auslastung des Servers abhängig.)
Erzgebirge - Wetter | Erzgebirge - Wetter (Mobilgeräte) | Komplette Klimadatenbank